sensor_id;sensor_type;location;lat;lon;timestamp;P1;P2;P0
56495;PMS5003;42804;55.762;38.084;2023-12-20T00:01:23;0.00;0.00;0.00
56495;PMS5003;42804;55.762;38.084;2023-12-20T00:03:51;0.00;0.00;0.00
56495;PMS5003;42804;55.762;38.084;2023-12-20T00:06:21;1.00;0.75;0.00
56495;PMS5003;42804;55.762;38.084;2023-12-20T00:08:50;1.00;0.50;0.00
56495;PMS5003;42804;55.762;38.084;2023-12-20T00:11:18;3.75;2.25;1.00
56495;PMS5003;42804;55.762;38.084;2023-12-20T00:13:46;0.00;0.00;0.00
56495;PMS5003;42804;55.762;38.084;2023-12-20T00:16:17;1.00;1.00;0.00
56495;PMS5003;42804;55.762;38.084;2023-12-20T00:18:46;0.00;0.00;0.00
56495;PMS5003;42804;55.762;38.084;2023-12-20T00:21:14;4.00;4.00;1.25
56495;PMS5003;42804;55.762;38.084;2023-12-20T00:23:44;3.75;2.25;1.00
56495;PMS5003;42804;55.762;38.084;2023-12-20T00:26:12;7.00;4.50;3.75
56495;PMS5003;42804;55.762;38.084;2023-12-20T00:28:40;10.75;8.25;4.50
56495;PMS5003;42804;55.762;38.084;2023-12-20T00:31:09;12.75;10.00;5.00
56495;PMS5003;42804;55.762;38.084;2023-12-20T00:33:38;10.00;8.75;4.50
56495;PMS5003;42804;55.762;38.084;2023-12-20T00:36:10;7.00;7.00;4.00
56495;PMS5003;42804;55.762;38.084;2023-12-20T00:38:38;7.75;6.50;4.00
56495;PMS5003;42804;55.762;38.084;2023-12-20T00:41:08;6.50;6.50;3.50
56495;PMS5003;42804;55.762;38.084;2023-12-20T00:43:36;8.00;7.00;2.50
56495;PMS5003;42804;55.762;38.084;2023-12-20T00:46:05;5.50;5.25;1.00
56495;PMS5003;42804;55.762;38.084;2023-12-20T00:48:33;9.00;8.00;4.50
56495;PMS5003;42804;55.762;38.084;2023-12-20T00:51:01;4.00;3.50;1.00
56495;PMS5003;42804;55.762;38.084;2023-12-20T00:53:30;10.00;6.50;2.00
56495;PMS5003;42804;55.762;38.084;2023-12-20T00:55:58;4.75;4.50;2.00
56495;PMS5003;42804;55.762;38.084;2023-12-20T00:58:28;6.25;6.00;2.00
56495;PMS5003;42804;55.762;38.084;2023-12-20T01:00:56;4.00;4.00;1.25
56495;PMS5003;42804;55.762;38.084;2023-12-20T01:03:25;7.75;5.00;1.50
56495;PMS5003;42804;55.762;38.084;2023-12-20T01:05:53;7.00;5.00;2.00
56495;PMS5003;42804;55.762;38.084;2023-12-20T01:08:21;6.00;4.50;2.00
56495;PMS5003;42804;55.762;38.084;2023-12-20T01:10:49;5.00;4.00;1.75
56495;PMS5003;42804;55.762;38.084;2023-12-20T01:13:18;7.00;5.50;2.00
56495;PMS5003;42804;55.762;38.084;2023-12-20T01:15:48;6.00;4.00;2.00
56495;PMS5003;42804;55.762;38.084;2023-12-20T01:18:16;4.75;4.25;2.00
56495;PMS5003;42804;55.762;38.084;2023-12-20T01:20:44;5.50;5.00;2.00
56495;PMS5003;42804;55.762;38.084;2023-12-20T01:23:12;5.00;5.00;4.00
56495;PMS5003;42804;55.762;38.084;2023-12-20T01:25:41;4.00;4.00;1.25
56495;PMS5003;42804;55.762;38.084;2023-12-20T01:28:09;4.50;4.50;2.00
56495;PMS5003;42804;55.762;38.084;2023-12-20T01:30:38;5.50;3.50;1.50
56495;PMS5003;42804;55.762;38.084;2023-12-20T01:33:08;5.00;5.00;2.00
56495;PMS5003;42804;55.762;38.084;2023-12-20T01:35:36;4.00;4.00;2.00
56495;PMS5003;42804;55.762;38.084;2023-12-20T01:38:05;2.00;2.00;0.75
56495;PMS5003;42804;55.762;38.084;2023-12-20T01:40:33;5.50;4.00;2.50
56495;PMS5003;42804;55.762;38.084;2023-12-20T01:43:02;7.00;5.00;4.00
56495;PMS5003;42804;55.762;38.084;2023-12-20T01:45:30;4.50;3.50;0.00
56495;PMS5003;42804;55.762;38.084;2023-12-20T01:47:58;8.00;7.75;4.00
56495;PMS5003;42804;55.762;38.084;2023-12-20T01:50:29;9.50;9.50;5.00
56495;PMS5003;42804;55.762;38.084;2023-12-20T01:52:59;11.00;8.75;4.00
56495;PMS5003;42804;55.762;38.084;2023-12-20T01:55:29;8.75;7.75;4.00
56495;PMS5003;42804;55.762;38.084;2023-12-20T01:57:59;16.50;12.50;5.00
56495;PMS5003;42804;55.762;38.084;2023-12-20T02:00:28;7.75;7.50;4.00
56495;PMS5003;42804;55.762;38.084;2023-12-20T02:02:57;8.00;7.00;4.00
56495;PMS5003;42804;55.762;38.084;2023-12-20T02:05:30;10.50;10.00;5.00
56495;PMS5003;42804;55.762;38.084;2023-12-20T02:07:59;18.50;17.25;10.50
56495;PMS5003;42804;55.762;38.084;2023-12-20T02:10:28;20.50;15.75;9.00
56495;PMS5003;42804;55.762;38.084;2023-12-20T02:12:56;13.00;11.50;8.00
56495;PMS5003;42804;55.762;38.084;2023-12-20T02:15:25;13.00;11.00;8.00
56495;PMS5003;42804;55.762;38.084;2023-12-20T02:17:53;18.00;15.50;10.25
56495;PMS5003;42804;55.762;38.084;2023-12-20T02:20:43;16.75;15.75;10.00
56495;PMS5003;42804;55.762;38.084;2023-12-20T02:23:13;16.50;14.00;8.00
56495;PMS5003;42804;55.762;38.084;2023-12-20T02:25:41;10.25;9.00;4.00
56495;PMS5003;42804;55.762;38.084;2023-12-20T02:28:09;10.00;8.25;4.75
56495;PMS5003;42804;55.762;38.084;2023-12-20T02:30:38;7.00;7.00;2.50
56495;PMS5003;42804;55.762;38.084;2023-12-20T02:33:07;10.50;9.00;7.00
56495;PMS5003;42804;55.762;38.084;2023-12-20T02:35:36;14.00;13.00;5.00
56495;PMS5003;42804;55.762;38.084;2023-12-20T02:38:04;8.50;6.00;2.00
56495;PMS5003;42804;55.762;38.084;2023-12-20T02:40:34;11.75;9.25;5.00
56495;PMS5003;42804;55.762;38.084;2023-12-20T02:43:02;12.25;8.00;5.00
56495;PMS5003;42804;55.762;38.084;2023-12-20T02:45:30;10.50;10.50;5.00
56495;PMS5003;42804;55.762;38.084;2023-12-20T02:47:59;10.00;7.25;4.00
56495;PMS5003;42804;55.762;38.084;2023-12-20T02:50:27;8.75;6.75;3.50
56495;PMS5003;42804;55.762;38.084;2023-12-20T02:52:55;4.00;3.50;1.25
56495;PMS5003;42804;55.762;38.084;2023-12-20T02:55:23;6.00;4.00;1.75
56495;PMS5003;42804;55.762;38.084;2023-12-20T02:57:53;7.50;7.50;4.00
56495;PMS5003;42804;55.762;38.084;2023-12-20T03:00:21;2.00;1.00;0.00
56495;PMS5003;42804;55.762;38.084;2023-12-20T03:02:49;5.00;4.50;1.00
56495;PMS5003;42804;55.762;38.084;2023-12-20T03:05:18;6.75;4.00;1.00
56495;PMS5003;42804;55.762;38.084;2023-12-20T03:07:47;0.00;0.00;0.00
56495;PMS5003;42804;55.762;38.084;2023-12-20T03:10:16;4.50;4.50;2.00
56495;PMS5003;42804;55.762;38.084;2023-12-20T03:12:53;9.50;7.00;4.00
56495;PMS5003;42804;55.762;38.084;2023-12-20T03:15:21;7.00;5.00;4.00
56495;PMS5003;42804;55.762;38.084;2023-12-20T03:17:50;10.25;7.25;2.00
56495;PMS5003;42804;55.762;38.084;2023-12-20T03:20:18;4.50;3.00;2.50
56495;PMS5003;42804;55.762;38.084;2023-12-20T03:22:46;15.25;12.00;7.00
56495;PMS5003;42804;55.762;38.084;2023-12-20T03:25:15;10.25;8.00;4.25
56495;PMS5003;42804;55.762;38.084;2023-12-20T03:27:44;5.00;5.00;1.50
56495;PMS5003;42804;55.762;38.084;2023-12-20T03:30:14;7.75;7.00;1.00
56495;PMS5003;42804;55.762;38.084;2023-12-20T03:32:43;10.00;7.00;1.00
56495;PMS5003;42804;55.762;38.084;2023-12-20T03:35:14;13.75;10.75;6.50
56495;PMS5003;42804;55.762;38.084;2023-12-20T03:37:42;17.50;14.00;10.00
56495;PMS5003;42804;55.762;38.084;2023-12-20T03:40:10;22.75;20.50;15.75
56495;PMS5003;42804;55.762;38.084;2023-12-20T03:42:39;30.00;26.50;19.25
56495;PMS5003;42804;55.762;38.084;2023-12-20T03:45:07;29.25;28.25;21.50
56495;PMS5003;42804;55.762;38.084;2023-12-20T03:47:37;30.50;30.25;22.50
56495;PMS5003;42804;55.762;38.084;2023-12-20T03:50:06;30.50;29.50;21.25
56495;PMS5003;42804;55.762;38.084;2023-12-20T03:52:34;33.50;30.75;23.50
56495;PMS5003;42804;55.762;38.084;2023-12-20T03:55:03;46.40;38.60;28.20
56495;PMS5003;42804;55.762;38.084;2023-12-20T03:57:31;50.80;46.00;30.40
56495;PMS5003;42804;55.762;38.084;2023-12-20T04:00:00;51.60;46.80;32.00
56495;PMS5003;42804;55.762;38.084;2023-12-20T04:02:39;51.40;43.80;32.20
56495;PMS5003;42804;55.762;38.084;2023-12-20T04:05:07;61.80;52.00;36.00
56495;PMS5003;42804;55.762;38.084;2023-12-20T04:07:36;43.20;40.20;29.00
56495;PMS5003;42804;55.762;38.084;2023-12-20T04:10:05;32.50;29.00;19.00
56495;PMS5003;42804;55.762;38.084;2023-12-20T04:12:33;36.50;34.50;24.00
56495;PMS5003;42804;55.762;38.084;2023-12-20T04:15:02;26.50;24.75;15.75
56495;PMS5003;42804;55.762;38.084;2023-12-20T04:17:36;28.75;26.75;19.25
56495;PMS5003;42804;55.762;38.084;2023-12-20T04:20:06;30.50;23.50;14.75
56495;PMS5003;42804;55.762;38.084;2023-12-20T04:22:35;25.00;19.25;13.00
56495;PMS5003;42804;55.762;38.084;2023-12-20T04:25:03;22.25;21.75;14.25
56495;PMS5003;42804;55.762;38.084;2023-12-20T04:27:32;19.25;19.00;13.00
56495;PMS5003;42804;55.762;38.084;2023-12-20T04:30:00;13.25;12.75;8.00
56495;PMS5003;42804;55.762;38.084;2023-12-20T04:32:30;15.75;12.50;5.50
56495;PMS5003;42804;55.762;38.084;2023-12-20T04:34:59;13.00;13.00;7.00
56495;PMS5003;42804;55.762;38.084;2023-12-20T04:37:29;14.50;13.00;7.00
56495;PMS5003;42804;55.762;38.084;2023-12-20T04:39:57;12.50;12.00;7.00
56495;PMS5003;42804;55.762;38.084;2023-12-20T04:42:26;15.75;14.00;7.50
56495;PMS5003;42804;55.762;38.084;2023-12-20T04:44:54;17.00;16.50;10.00
56495;PMS5003;42804;55.762;38.084;2023-12-20T04:47:22;18.25;17.00;8.00
56495;PMS5003;42804;55.762;38.084;2023-12-20T04:49:51;26.50;23.25;13.00
56495;PMS5003;42804;55.762;38.084;2023-12-20T04:52:20;21.50;18.25;10.75
56495;PMS5003;42804;55.762;38.084;2023-12-20T04:54:50;11.00;10.25;7.00
56495;PMS5003;42804;55.762;38.084;2023-12-20T04:57:18;18.75;15.00;6.00
56495;PMS5003;42804;55.762;38.084;2023-12-20T04:59:47;22.00;15.50;7.50
56495;PMS5003;42804;55.762;38.084;2023-12-20T05:02:15;13.50;10.50;7.00
56495;PMS5003;42804;55.762;38.084;2023-12-20T05:04:43;19.25;15.00;7.00
56495;PMS5003;42804;55.762;38.084;2023-12-20T05:07:11;12.75;8.00;1.00
56495;PMS5003;42804;55.762;38.084;2023-12-20T05:09:40;12.50;9.75;4.75
56495;PMS5003;42804;55.762;38.084;2023-12-20T05:12:10;11.25;11.00;6.00
56495;PMS5003;42804;55.762;38.084;2023-12-20T05:14:38;12.25;9.50;6.00
56495;PMS5003;42804;55.762;38.084;2023-12-20T05:17:06;7.00;6.00;2.00
56495;PMS5003;42804;55.762;38.084;2023-12-20T05:19:35;11.75;8.75;3.25
56495;PMS5003;42804;55.762;38.084;2023-12-20T05:22:03;7.00;6.00;2.50
56495;PMS5003;42804;55.762;38.084;2023-12-20T05:24:32;17.75;14.50;9.75
56495;PMS5003;42804;55.762;38.084;2023-12-20T05:27:00;16.75;16.75;10.00
56495;PMS5003;42804;55.762;38.084;2023-12-20T05:29:30;13.75;11.50;6.00
56495;PMS5003;42804;55.762;38.084;2023-12-20T05:31:58;4.50;4.50;3.00
56495;PMS5003;42804;55.762;38.084;2023-12-20T05:34:26;9.25;9.00;3.75
56495;PMS5003;42804;55.762;38.084;2023-12-20T05:36:56;17.50;9.00;4.00
56495;PMS5003;42804;55.762;38.084;2023-12-20T05:39:24;11.00;10.50;4.50
56495;PMS5003;42804;55.762;38.084;2023-12-20T05:41:52;11.00;10.25;4.50
56495;PMS5003;42804;55.762;38.084;2023-12-20T05:44:20;15.00;12.50;6.00
56495;PMS5003;42804;55.762;38.084;2023-12-20T05:46:50;6.50;6.25;3.00
56495;PMS5003;42804;55.762;38.084;2023-12-20T05:49:18;3.50;3.50;1.50
56495;PMS5003;42804;55.762;38.084;2023-12-20T05:51:47;9.75;7.50;3.25
56495;PMS5003;42804;55.762;38.084;2023-12-20T05:54:15;19.00;11.25;6.50
56495;PMS5003;42804;55.762;38.084;2023-12-20T05:56:44;14.25;11.25;7.00
56495;PMS5003;42804;55.762;38.084;2023-12-20T05:59:12;17.75;12.75;7.50
56495;PMS5003;42804;55.762;38.084;2023-12-20T06:01:40;8.75;8.00;4.00
56495;PMS5003;42804;55.762;38.084;2023-12-20T06:04:10;8.50;7.00;2.00
56495;PMS5003;42804;55.762;38.084;2023-12-20T06:06:46;17.50;13.00;8.75
56495;PMS5003;42804;55.762;38.084;2023-12-20T06:09:14;22.50;20.75;14.25
56495;PMS5003;42804;55.762;38.084;2023-12-20T06:11:43;28.00;26.50;17.50
56495;PMS5003;42804;55.762;38.084;2023-12-20T06:14:11;36.25;34.25;22.75
56495;PMS5003;42804;55.762;38.084;2023-12-20T06:16:40;24.75;24.00;17.50
56495;PMS5003;42804;55.762;38.084;2023-12-20T06:19:08;32.75;28.00;19.00
56495;PMS5003;42804;55.762;38.084;2023-12-20T06:21:36;24.00;22.00;12.75
56495;PMS5003;42804;55.762;38.084;2023-12-20T06:24:09;18.50;12.75;7.75
56495;PMS5003;42804;55.762;38.084;2023-12-20T06:26:37;10.50;10.00;5.00
56495;PMS5003;42804;55.762;38.084;2023-12-20T06:29:05;11.25;9.00;5.00
56495;PMS5003;42804;55.762;38.084;2023-12-20T06:31:34;12.75;10.75;5.00
56495;PMS5003;42804;55.762;38.084;2023-12-20T06:34:02;12.50;10.00;4.00
56495;PMS5003;42804;55.762;38.084;2023-12-20T06:36:31;8.00;8.00;4.50
56495;PMS5003;42804;55.762;38.084;2023-12-20T06:38:59;8.25;7.25;2.00
56495;PMS5003;42804;55.762;38.084;2023-12-20T06:41:29;9.00;7.00;4.00
56495;PMS5003;42804;55.762;38.084;2023-12-20T06:43:57;7.75;7.75;4.00
56495;PMS5003;42804;55.762;38.084;2023-12-20T06:46:25;9.50;8.00;6.50
56495;PMS5003;42804;55.762;38.084;2023-12-20T06:48:54;11.00;10.50;6.50
56495;PMS5003;42804;55.762;38.084;2023-12-20T06:51:22;7.50;7.00;4.00
56495;PMS5003;42804;55.762;38.084;2023-12-20T06:53:52;4.75;4.00;1.25
56495;PMS5003;42804;55.762;38.084;2023-12-20T06:56:21;14.00;10.75;5.00
56495;PMS5003;42804;55.762;38.084;2023-12-20T06:58:51;11.00;8.50;5.00
56495;PMS5003;42804;55.762;38.084;2023-12-20T07:01:19;13.50;12.00;7.25
56495;PMS5003;42804;55.762;38.084;2023-12-20T07:03:48;14.25;14.00;7.75
56495;PMS5003;42804;55.762;38.084;2023-12-20T07:06:16;14.50;12.25;4.25
56495;PMS5003;42804;55.762;38.084;2023-12-20T07:08:46;17.50;14.00;7.00
56495;PMS5003;42804;55.762;38.084;2023-12-20T07:11:14;12.00;9.50;4.00
56495;PMS5003;42804;55.762;38.084;2023-12-20T07:13:42;11.75;10.00;6.50
56495;PMS5003;42804;55.762;38.084;2023-12-20T07:16:12;17.75;11.00;7.00
56495;PMS5003;42804;55.762;38.084;2023-12-20T07:18:41;10.75;8.25;4.75
56495;PMS5003;42804;55.762;38.084;2023-12-20T07:21:09;6.75;6.50;2.50
56495;PMS5003;42804;55.762;38.084;2023-12-20T07:23:37;7.00;5.50;3.00
56495;PMS5003;42804;55.762;38.084;2023-12-20T07:26:06;10.25;9.00;7.00
56495;PMS5003;42804;55.762;38.084;2023-12-20T07:28:34;22.00;17.75;10.75
56495;PMS5003;42804;55.762;38.084;2023-12-20T07:31:03;8.50;8.00;5.00
56495;PMS5003;42804;55.762;38.084;2023-12-20T07:33:33;11.75;11.00;5.00
56495;PMS5003;42804;55.762;38.084;2023-12-20T07:36:06;10.00;9.75;5.50
56495;PMS5003;42804;55.762;38.084;2023-12-20T07:38:34;8.25;7.50;2.50
56495;PMS5003;42804;55.762;38.084;2023-12-20T07:41:03;13.25;11.75;6.00
56495;PMS5003;42804;55.762;38.084;2023-12-20T07:43:31;10.50;9.50;5.50
56495;PMS5003;42804;55.762;38.084;2023-12-20T07:46:03;13.00;7.75;4.00
56495;PMS5003;42804;55.762;38.084;2023-12-20T07:48:34;14.00;10.00;5.00
56495;PMS5003;42804;55.762;38.084;2023-12-20T07:51:02;9.75;9.75;5.00
56495;PMS5003;42804;55.762;38.084;2023-12-20T07:53:31;11.50;6.50;2.00
56495;PMS5003;42804;55.762;38.084;2023-12-20T07:55:59;13.50;11.75;4.75
56495;PMS5003;42804;55.762;38.084;2023-12-20T07:58:27;10.50;9.50;6.25
56495;PMS5003;42804;55.762;38.084;2023-12-20T08:01:16;14.25;11.00;6.00
56495;PMS5003;42804;55.762;38.084;2023-12-20T08:03:47;14.50;12.50;8.00
56495;PMS5003;42804;55.762;38.084;2023-12-20T08:06:16;12.50;10.75;8.25
56495;PMS5003;42804;55.762;38.084;2023-12-20T08:08:45;14.50;11.25;7.00
56495;PMS5003;42804;55.762;38.084;2023-12-20T08:11:27;10.50;10.50;6.50
56495;PMS5003;42804;55.762;38.084;2023-12-20T08:13:55;14.00;11.75;8.00
56495;PMS5003;42804;55.762;38.084;2023-12-20T08:16:23;9.75;8.75;6.00
56495;PMS5003;42804;55.762;38.084;2023-12-20T08:18:53;7.75;4.75;1.50
56495;PMS5003;42804;55.762;38.084;2023-12-20T08:21:23;12.75;10.25;5.00
56495;PMS5003;42804;55.762;38.084;2023-12-20T08:23:52;9.00;7.00;2.00
56495;PMS5003;42804;55.762;38.084;2023-12-20T08:26:20;9.50;8.00;4.00
56495;PMS5003;42804;55.762;38.084;2023-12-20T08:28:49;11.00;8.25;4.75
56495;PMS5003;42804;55.762;38.084;2023-12-20T08:31:18;10.75;9.00;4.00
56495;PMS5003;42804;55.762;38.084;2023-12-20T08:33:48;10.00;7.25;5.00
56495;PMS5003;42804;55.762;38.084;2023-12-20T08:36:18;11.25;9.75;7.00
56495;PMS5003;42804;55.762;38.084;2023-12-20T08:38:48;8.75;8.50;4.25
56495;PMS5003;42804;55.762;38.084;2023-12-20T08:41:16;10.25;10.00;6.50
56495;PMS5003;42804;55.762;38.084;2023-12-20T08:43:45;4.25;4.00;2.00
56495;PMS5003;42804;55.762;38.084;2023-12-20T08:46:14;7.50;7.00;4.00
56495;PMS5003;42804;55.762;38.084;2023-12-20T08:48:42;7.75;7.75;4.75
56495;PMS5003;42804;55.762;38.084;2023-12-20T08:51:12;7.25;5.50;4.00
56495;PMS5003;42804;55.762;38.084;2023-12-20T08:53:43;7.25;6.00;2.00
56495;PMS5003;42804;55.762;38.084;2023-12-20T08:56:12;4.25;4.25;1.50
56495;PMS5003;42804;55.762;38.084;2023-12-20T08:58:40;8.25;7.50;4.75
56495;PMS5003;42804;55.762;38.084;2023-12-20T09:01:09;9.00;8.00;5.00
56495;PMS5003;42804;55.762;38.084;2023-12-20T09:03:37;8.25;5.75;2.00
56495;PMS5003;42804;55.762;38.084;2023-12-20T09:06:06;7.75;6.50;2.00
56495;PMS5003;42804;55.762;38.084;2023-12-20T09:08:34;11.75;10.75;6.00
56495;PMS5003;42804;55.762;38.084;2023-12-20T09:11:04;17.50;11.00;7.25
56495;PMS5003;42804;55.762;38.084;2023-12-20T09:13:32;11.75;8.75;2.00
56495;PMS5003;42804;55.762;38.084;2023-12-20T09:16:01;10.00;9.00;5.00
56495;PMS5003;42804;55.762;38.084;2023-12-20T09:18:29;11.25;9.50;4.75
56495;PMS5003;42804;55.762;38.084;2023-12-20T09:20:57;21.00;17.00;8.25
56495;PMS5003;42804;55.762;38.084;2023-12-20T09:23:26;22.00;17.50;8.50
56495;PMS5003;42804;55.762;38.084;2023-12-20T09:25:54;13.75;12.00;4.25
56495;PMS5003;42804;55.762;38.084;2023-12-20T09:28:25;15.25;14.25;8.00
56495;PMS5003;42804;55.762;38.084;2023-12-20T09:30:54;19.25;18.25;11.00
56495;PMS5003;42804;55.762;38.084;2023-12-20T09:33:22;16.25;12.50;7.00
56495;PMS5003;42804;55.762;38.084;2023-12-20T09:35:52;18.25;16.75;9.50
56495;PMS5003;42804;55.762;38.084;2023-12-20T09:38:21;16.50;15.50;11.00
56495;PMS5003;42804;55.762;38.084;2023-12-20T09:40:49;21.75;18.50;11.00
56495;PMS5003;42804;55.762;38.084;2023-12-20T09:43:18;17.00;15.25;7.75
56495;PMS5003;42804;55.762;38.084;2023-12-20T09:45:49;16.00;15.00;9.25
56495;PMS5003;42804;55.762;38.084;2023-12-20T09:48:21;22.50;19.00;14.00
56495;PMS5003;42804;55.762;38.084;2023-12-20T09:50:49;18.75;17.75;11.75
56495;PMS5003;42804;55.762;38.084;2023-12-20T09:53:20;25.50;23.25;15.50
56495;PMS5003;42804;55.762;38.084;2023-12-20T09:55:53;30.25;26.75;18.00
56495;PMS5003;42804;55.762;38.084;2023-12-20T09:58:21;32.25;26.25;20.25
56495;PMS5003;42804;55.762;38.084;2023-12-20T10:00:51;31.00;26.00;16.75
56495;PMS5003;42804;55.762;38.084;2023-12-20T10:03:22;28.00;24.00;16.00
56495;PMS5003;42804;55.762;38.084;2023-12-20T10:05:52;31.75;27.00;18.75
56495;PMS5003;42804;55.762;38.084;2023-12-20T10:08:22;22.75;21.00;15.00
56495;PMS5003;42804;55.762;38.084;2023-12-20T10:10:51;22.50;19.00;14.00
56495;PMS5003;42804;55.762;38.084;2023-12-20T10:13:20;18.50;17.25;11.00
56495;PMS5003;42804;55.762;38.084;2023-12-20T10:15:49;25.00;19.50;11.25
56495;PMS5003;42804;55.762;38.084;2023-12-20T10:18:19;30.25;25.00;14.75
56495;PMS5003;42804;55.762;38.084;2023-12-20T10:21:03;21.50;21.50;14.00
56495;PMS5003;42804;55.762;38.084;2023-12-20T10:23:31;19.25;18.00;11.00
56495;PMS5003;42804;55.762;38.084;2023-12-20T10:26:00;17.50;15.50;10.00
56495;PMS5003;42804;55.762;38.084;2023-12-20T10:28:32;24.50;22.00;14.75
56495;PMS5003;42804;55.762;38.084;2023-12-20T10:31:02;22.50;21.25;14.00
56495;PMS5003;42804;55.762;38.084;2023-12-20T10:33:31;18.50;17.50;11.25
56495;PMS5003;42804;55.762;38.084;2023-12-20T10:36:01;24.50;18.25;14.50
56495;PMS5003;42804;55.762;38.084;2023-12-20T10:38:30;22.00;21.00;14.00
56495;PMS5003;42804;55.762;38.084;2023-12-20T10:40:59;31.00;25.00;17.75
56495;PMS5003;42804;55.762;38.084;2023-12-20T10:43:29;32.00;28.75;21.25
56495;PMS5003;42804;55.762;38.084;2023-12-20T10:45:59;33.00;28.00;18.00
56495;PMS5003;42804;55.762;38.084;2023-12-20T10:48:28;38.00;33.25;23.75
56495;PMS5003;42804;55.762;38.084;2023-12-20T10:50:59;32.75;28.00;20.25
56495;PMS5003;42804;55.762;38.084;2023-12-20T10:53:29;22.00;22.00;18.00
56495;PMS5003;42804;55.762;38.084;2023-12-20T10:55:57;27.75;25.75;18.00
56495;PMS5003;42804;55.762;38.084;2023-12-20T10:58:28;30.75;27.25;18.00
56495;PMS5003;42804;55.762;38.084;2023-12-20T11:00:59;34.25;30.75;22.00
56495;PMS5003;42804;55.762;38.084;2023-12-20T11:03:29;25.00;25.00;17.00
56495;PMS5003;42804;55.762;38.084;2023-12-20T11:06:03;27.75;26.50;19.25
56495;PMS5003;42804;55.762;38.084;2023-12-20T11:08:33;31.00;27.00;18.75
56495;PMS5003;42804;55.762;38.084;2023-12-20T11:11:04;21.75;20.00;14.00
56495;PMS5003;42804;55.762;38.084;2023-12-20T11:13:34;22.25;17.75;10.50
56495;PMS5003;42804;55.762;38.084;2023-12-20T11:16:04;18.25;16.00;9.25
56495;PMS5003;42804;55.762;38.084;2023-12-20T11:18:33;13.00;12.00;8.50
56495;PMS5003;42804;55.762;38.084;2023-12-20T11:21:04;14.25;14.00;9.25
56495;PMS5003;42804;55.762;38.084;2023-12-20T11:23:32;16.75;15.00;11.00
56495;PMS5003;42804;55.762;38.084;2023-12-20T11:26:02;19.75;19.00;10.75
56495;PMS5003;42804;55.762;38.084;2023-12-20T11:28:30;25.00;19.75;14.00
56495;PMS5003;42804;55.762;38.084;2023-12-20T11:31:00;24.75;24.00;17.75
56495;PMS5003;42804;55.762;38.084;2023-12-20T11:33:30;16.75;15.50;9.75
56495;PMS5003;42804;55.762;38.084;2023-12-20T11:35:59;24.50;22.50;14.00
56495;PMS5003;42804;55.762;38.084;2023-12-20T11:38:29;25.25;22.00;15.50
56495;PMS5003;42804;55.762;38.084;2023-12-20T11:41:05;26.00;22.75;16.00
56495;PMS5003;42804;55.762;38.084;2023-12-20T11:43:37;26.75;22.00;16.50
56495;PMS5003;42804;55.762;38.084;2023-12-20T11:46:06;20.75;19.50;15.00
56495;PMS5003;42804;55.762;38.084;2023-12-20T11:48:36;23.75;21.50;13.50
56495;PMS5003;42804;55.762;38.084;2023-12-20T11:51:08;25.00;24.50;17.25
56495;PMS5003;42804;55.762;38.084;2023-12-20T11:53:38;29.75;28.75;20.00
56495;PMS5003;42804;55.762;38.084;2023-12-20T11:56:07;25.50;24.50;17.00
56495;PMS5003;42804;55.762;38.084;2023-12-20T11:58:35;18.75;15.75;8.25
56495;PMS5003;42804;55.762;38.084;2023-12-20T12:01:04;14.00;12.00;7.50
56495;PMS5003;42804;55.762;38.084;2023-12-20T12:03:35;13.75;10.50;7.00
56495;PMS5003;42804;55.762;38.084;2023-12-20T12:06:04;20.75;19.75;13.00
56495;PMS5003;42804;55.762;38.084;2023-12-20T12:08:32;17.75;14.25;9.00
56495;PMS5003;42804;55.762;38.084;2023-12-20T12:11:02;19.00;17.00;10.00
56495;PMS5003;42804;55.762;38.084;2023-12-20T12:13:31;20.50;19.50;12.50
56495;PMS5003;42804;55.762;38.084;2023-12-20T12:15:59;21.75;19.75;13.25
56495;PMS5003;42804;55.762;38.084;2023-12-20T12:18:27;25.00;24.00;16.75
56495;PMS5003;42804;55.762;38.084;2023-12-20T12:20:59;26.25;24.00;14.00
56495;PMS5003;42804;55.762;38.084;2023-12-20T12:23:28;31.75;24.00;17.00
56495;PMS5003;42804;55.762;38.084;2023-12-20T12:25:56;28.50;26.75;18.00
56495;PMS5003;42804;55.762;38.084;2023-12-20T12:28:27;36.50;31.50;22.00
56495;PMS5003;42804;55.762;38.084;2023-12-20T12:30:56;38.00;33.50;23.75
56495;PMS5003;42804;55.762;38.084;2023-12-20T12:33:25;28.50;27.00;18.50
56495;PMS5003;42804;55.762;38.084;2023-12-20T12:35:54;33.00;32.00;20.25
56495;PMS5003;42804;55.762;38.084;2023-12-20T12:38:22;39.50;33.75;19.25
56495;PMS5003;42804;55.762;38.084;2023-12-20T12:40:52;32.50;29.25;18.25
56495;PMS5003;42804;55.762;38.084;2023-12-20T12:43:20;35.00;27.75;18.25
56495;PMS5003;42804;55.762;38.084;2023-12-20T12:45:51;35.50;29.25;20.75
56495;PMS5003;42804;55.762;38.084;2023-12-20T12:48:20;42.50;32.25;22.50
56495;PMS5003;42804;55.762;38.084;2023-12-20T12:50:49;38.50;36.25;27.00
56495;PMS5003;42804;55.762;38.084;2023-12-20T12:53:19;33.75;30.75;20.00
56495;PMS5003;42804;55.762;38.084;2023-12-20T12:55:47;30.50;28.00;21.25
56495;PMS5003;42804;55.762;38.084;2023-12-20T12:58:15;31.25;27.50;19.75
56495;PMS5003;42804;55.762;38.084;2023-12-20T13:00:43;31.75;29.25;20.00
56495;PMS5003;42804;55.762;38.084;2023-12-20T13:03:13;37.50;32.50;22.00
56495;PMS5003;42804;55.762;38.084;2023-12-20T13:05:42;35.75;30.25;21.00
56495;PMS5003;42804;55.762;38.084;2023-12-20T13:08:13;41.00;36.00;26.75
56495;PMS5003;42804;55.762;38.084;2023-12-20T13:10:41;28.00;25.75;16.00
56495;PMS5003;42804;55.762;38.084;2023-12-20T13:13:09;53.60;46.00;29.00
56495;PMS5003;42804;55.762;38.084;2023-12-20T13:15:38;47.00;40.80;27.20
56495;PMS5003;42804;55.762;38.084;2023-12-20T13:18:06;54.20;45.20;29.60
56495;PMS5003;42804;55.762;38.084;2023-12-20T13:20:36;48.50;42.25;25.75
56495;PMS5003;42804;55.762;38.084;2023-12-20T13:23:06;46.20;43.20;29.00
56495;PMS5003;42804;55.762;38.084;2023-12-20T13:25:34;36.25;32.00;21.50
56495;PMS5003;42804;55.762;38.084;2023-12-20T13:28:03;36.25;31.75;23.00
56495;PMS5003;42804;55.762;38.084;2023-12-20T13:30:31;40.00;36.50;26.75
56495;PMS5003;42804;55.762;38.084;2023-12-20T13:33:01;45.50;41.25;26.75
56495;PMS5003;42804;55.762;38.084;2023-12-20T13:35:29;41.00;37.75;26.00
56495;PMS5003;42804;55.762;38.084;2023-12-20T13:37:59;29.25;28.25;19.75
56495;PMS5003;42804;55.762;38.084;2023-12-20T13:40:27;19.00;18.50;10.00
56495;PMS5003;42804;55.762;38.084;2023-12-20T13:42:56;12.25;11.75;6.25
56495;PMS5003;42804;55.762;38.084;2023-12-20T13:45:25;13.25;11.50;7.00
56495;PMS5003;42804;55.762;38.084;2023-12-20T13:47:53;9.50;9.50;6.00
56495;PMS5003;42804;55.762;38.084;2023-12-20T13:50:21;13.50;12.25;5.00
56495;PMS5003;42804;55.762;38.084;2023-12-20T13:52:50;13.50;12.25;7.25
56495;PMS5003;42804;55.762;38.084;2023-12-20T13:55:19;15.00;14.50;7.00
56495;PMS5003;42804;55.762;38.084;2023-12-20T13:57:52;7.25;7.25;4.75
56495;PMS5003;42804;55.762;38.084;2023-12-20T14:00:22;13.00;10.00;6.00